Time;durP1;ratioP1;P1;durP2;ratioP2;P2;SDS_P1;SDS_P2;PMS_P1;PMS_P2;Temp;Humidity;BMP_temperature;BMP_pressure;BME280_temperature;BME280_humidity;BME280_pressure;Samples;Min_cycle;Max_cycle;Signal;HPM_P1;HPM_P2
2022/03/30 00:01:20;;;;;;;31.77;20.30;;;15.30;55.40;;;;;;5051247;28;20025;-72
2022/03/30 00:03:46;;;;;;;28.67;20.30;;;15.30;55.60;;;;;;5050828;28;20303;-72
2022/03/30 00:06:11;;;;;;;32.78;20.75;;;15.30;55.40;;;;;;5051454;28;20021;-72
2022/03/30 00:08:37;;;;;;;30.80;21.10;;;15.30;55.50;;;;;;5054866;28;20021;-71
2022/03/30 00:11:03;;;;;;;28.90;20.42;;;15.30;55.60;;;;;;5055482;28;20029;-72
2022/03/30 00:13:28;;;;;;;29.00;19.38;;;15.30;55.50;;;;;;5055217;28;20029;-72
2022/03/30 00:15:54;;;;;;;30.95;19.67;;;15.30;55.60;;;;;;5054916;28;20041;-71
2022/03/30 00:18:21;;;;;;;25.80;20.50;;;15.30;55.60;;;;;;5055209;28;20033;-71
2022/03/30 00:20:46;;;;;;;31.38;22.05;;;15.30;55.60;;;;;;5054768;28;20206;-72
2022/03/30 00:23:12;;;;;;;31.83;21.08;;;15.30;55.60;;;;;;5055415;28;20017;-72
2022/03/30 00:25:38;;;;;;;28.67;20.27;;;15.30;55.60;;;;;;5054603;28;20154;-72
2022/03/30 00:28:04;;;;;;;26.73;20.85;;;15.30;55.50;;;;;;5055574;28;20057;-72
2022/03/30 00:30:30;;;;;;;28.17;20.48;;;15.30;55.60;;;;;;5054636;28;20035;-72
2022/03/30 00:32:56;;;;;;;24.67;19.38;;;15.30;55.70;;;;;;5054514;28;20029;-72
2022/03/30 00:35:21;;;;;;;34.83;20.52;;;15.30;55.70;;;;;;5055021;28;20454;-71
2022/03/30 00:37:47;;;;;;;28.35;20.27;;;15.20;55.80;;;;;;5054375;28;20025;-71
2022/03/30 00:40:15;;;;;;;28.17;20.48;;;15.20;55.90;;;;;;5055378;28;20078;-71
2022/03/30 00:42:41;;;;;;;26.52;19.50;;;15.20;55.90;;;;;;5054253;28;20021;-72
2022/03/30 00:45:16;;;;;;;33.40;20.02;;;15.20;56.10;;;;;;5054758;28;20040;-73
2022/03/30 00:47:42;;;;;;;28.20;21.17;;;15.20;56.50;;;;;;5054163;28;20112;-72
2022/03/30 00:50:10;;;;;;;30.77;21.00;;;15.20;56.20;;;;;;5054625;28;20358;-72
2022/03/30 00:52:37;;;;;;;29.00;21.25;;;15.20;56.30;;;;;;5054797;28;20029;-72
2022/03/30 00:55:04;;;;;;;32.35;20.98;;;15.10;56.50;;;;;;5054413;28;20096;-72
2022/03/30 00:57:32;;;;;;;27.48;20.98;;;15.10;56.60;;;;;;5054562;28;20112;-72
2022/03/30 00:59:58;;;;;;;27.23;20.65;;;15.10;56.80;;;;;;5054019;28;20111;-72
2022/03/30 01:02:24;;;;;;;30.48;20.38;;;15.00;57.00;;;;;;5054333;28;20025;-71
2022/03/30 01:04:51;;;;;;;29.08;20.50;;;15.00;57.20;;;;;;5053698;28;20431;-73
2022/03/30 01:07:17;;;;;;;28.92;20.63;;;14.90;57.30;;;;;;5054321;28;20033;-71
2022/03/30 01:09:43;;;;;;;25.58;18.83;;;14.90;57.50;;;;;;5053820;28;20032;-71
2022/03/30 01:12:10;;;;;;;30.35;21.05;;;14.90;57.60;;;;;;5054359;28;20438;-71
2022/03/30 01:14:37;;;;;;;29.98;19.70;;;14.80;57.70;;;;;;5054183;28;20024;-71
2022/03/30 01:17:04;;;;;;;25.02;19.83;;;14.80;57.90;;;;;;5053302;28;20104;-71
2022/03/30 01:19:32;;;;;;;23.58;19.15;;;14.80;58.00;;;;;;5054166;28;20039;-72
2022/03/30 01:21:59;;;;;;;27.67;19.95;;;14.80;58.10;;;;;;5053588;28;20025;-71
2022/03/30 01:24:26;;;;;;;31.88;21.20;;;14.80;58.30;;;;;;5053059;28;20045;-73
2022/03/30 01:26:52;;;;;;;29.50;20.77;;;14.70;58.40;;;;;;5051320;28;20465;-72
2022/03/30 01:34:48;;;;;;;28.25;20.02;;;14.70;58.60;;;;;;5053025;28;20055;-71
2022/03/30 01:37:14;;;;;;;28.45;19.75;;;14.60;58.50;;;;;;5053392;28;20029;-71
2022/03/30 01:39:40;;;;;;;27.50;19.80;;;14.60;58.70;;;;;;5050297;28;20031;-71
2022/03/30 01:42:06;;;;;;;24.90;19.05;;;14.60;58.70;;;;;;5052825;28;20029;-73
2022/03/30 01:44:33;;;;;;;27.85;19.63;;;14.60;58.70;;;;;;5053582;28;20041;-72
2022/03/30 01:46:59;;;;;;;28.73;20.63;;;14.60;58.60;;;;;;5052777;28;20036;-72
2022/03/30 01:49:24;;;;;;;26.15;19.30;;;14.60;58.70;;;;;;5053548;28;20025;-72
2022/03/30 01:51:52;;;;;;;28.63;18.77;;;14.60;58.80;;;;;;5051581;28;20025;-71
2022/03/30 01:54:20;;;;;;;24.55;18.95;;;14.60;58.80;;;;;;5053210;28;20112;-71
2022/03/30 01:56:47;;;;;;;29.65;20.00;;;14.60;58.70;;;;;;5052631;28;20136;-73
2022/03/30 01:59:13;;;;;;;28.38;19.60;;;14.60;59.10;;;;;;5053249;28;20382;-72
2022/03/30 02:01:40;;;;;;;26.92;19.92;;;14.50;59.00;;;;;;5053529;28;20509;-72
2022/03/30 02:04:06;;;;;;;29.45;19.90;;;14.50;59.70;;;;;;5052540;28;20029;-71
2022/03/30 02:06:33;;;;;;;27.10;19.80;;;14.50;59.30;;;;;;5053222;28;20036;-71
2022/03/30 02:08:59;;;;;;;25.00;20.33;;;14.50;59.30;;;;;;5052429;28;20086;-71
2022/03/30 02:11:43;;;;;;;25.55;19.58;;;14.50;59.60;;;;;;5053392;28;20370;-71
2022/03/30 02:14:09;;;;;;;28.83;18.98;;;14.50;59.60;;;;;;5052857;28;20425;-71
2022/03/30 02:16:34;;;;;;;28.92;20.55;;;14.50;59.70;;;;;;5052885;28;20059;-72
2022/03/30 02:19:00;;;;;;;27.75;18.92;;;14.40;59.80;;;;;;5052464;28;20382;-72
2022/03/30 02:21:26;;;;;;;26.17;19.05;;;14.40;60.00;;;;;;5053110;28;20029;-71
2022/03/30 02:23:51;;;;;;;28.63;19.77;;;14.40;60.20;;;;;;5052238;28;20064;-74
2022/03/30 02:26:18;;;;;;;29.83;19.52;;;14.30;60.20;;;;;;5052881;28;20035;-72
2022/03/30 02:28:51;;;;;;;24.02;18.13;;;14.30;60.50;;;;;;5051829;28;20468;-78
2022/03/30 02:31:22;;;;;;;26.60;18.73;;;14.30;60.50;;;;;;5052805;28;20069;-71
2022/03/30 02:33:48;;;;;;;26.42;19.23;;;14.30;60.80;;;;;;5052325;28;20029;-71
2022/03/30 02:36:14;;;;;;;25.80;18.90;;;14.30;60.80;;;;;;5052684;28;20396;-71
2022/03/30 02:38:42;;;;;;;25.52;19.45;;;14.30;60.80;;;;;;5052872;28;20029;-71
2022/03/30 02:41:08;;;;;;;30.95;19.75;;;14.30;60.90;;;;;;5051998;28;20052;-71
2022/03/30 02:43:35;;;;;;;25.60;18.83;;;14.20;61.10;;;;;;5052484;28;20390;-71
2022/03/30 02:46:00;;;;;;;25.98;19.30;;;14.30;61.20;;;;;;5051575;28;20044;-71
2022/03/30 02:48:29;;;;;;;25.55;19.83;;;14.20;61.40;;;;;;5052722;28;20017;-71
2022/03/30 02:50:57;;;;;;;27.90;19.67;;;14.20;61.40;;;;;;5051953;28;20021;-71
2022/03/30 02:53:23;;;;;;;26.50;18.85;;;14.20;61.60;;;;;;5052383;28;20028;-73
2022/03/30 02:55:49;;;;;;;29.88;19.75;;;14.10;61.70;;;;;;5051803;28;20053;-72
2022/03/30 02:58:15;;;;;;;26.75;19.77;;;14.10;62.00;;;;;;5052239;28;20025;-71
2022/03/30 03:00:42;;;;;;;26.30;19.67;;;14.10;62.20;;;;;;5052358;28;20100;-71
2022/03/30 03:03:09;;;;;;;32.15;22.20;;;14.10;62.50;;;;;;5051639;28;20029;-71
2022/03/30 03:05:36;;;;;;;32.95;22.48;;;14.10;63.00;;;;;;5051879;28;20037;-71
2022/03/30 03:08:03;;;;;;;26.88;21.20;;;14.10;63.30;;;;;;5051465;28;20039;-71
2022/03/30 03:10:30;;;;;;;26.50;21.70;;;14.10;63.50;;;;;;5051997;28;20060;-71
2022/03/30 03:12:56;;;;;;;32.63;21.67;;;14.00;63.80;;;;;;5051443;28;20105;-72
2022/03/30 03:15:23;;;;;;;30.77;21.85;;;14.00;63.90;;;;;;5052082;28;20104;-72
2022/03/30 03:17:50;;;;;;;31.45;22.08;;;14.00;64.40;;;;;;5051470;28;20033;-72
2022/03/30 03:20:15;;;;;;;34.10;22.75;;;13.90;64.70;;;;;;5051704;28;20024;-71
2022/03/30 03:22:42;;;;;;;29.10;22.58;;;13.90;64.90;;;;;;5052187;28;20017;-73
2022/03/30 03:25:09;;;;;;;29.25;22.17;;;13.90;65.40;;;;;;5035985;28;20309;-71
2022/03/30 03:27:34;;;;;;;32.00;23.17;;;13.90;65.40;;;;;;5051604;28;20202;-71
2022/03/30 03:30:00;;;;;;;32.05;22.70;;;13.90;65.40;;;;;;5049922;28;20052;-71
2022/03/30 03:32:26;;;;;;;32.58;22.73;;;13.90;65.70;;;;;;5051600;28;20017;-72
2022/03/30 03:34:52;;;;;;;34.80;23.95;;;13.90;65.90;;;;;;5050860;28;20029;-72
2022/03/30 03:37:18;;;;;;;34.95;23.40;;;13.80;65.70;;;;;;5051316;28;20078;-72
2022/03/30 03:39:45;;;;;;;33.33;23.45;;;13.80;65.90;;;;;;5051816;28;20072;-72
2022/03/30 03:42:11;;;;;;;31.00;22.70;;;13.80;66.20;;;;;;5050393;28;20462;-72
2022/03/30 03:44:36;;;;;;;29.90;23.38;;;13.80;66.10;;;;;;5051805;28;20163;-71
2022/03/30 03:47:02;;;;;;;28.83;22.92;;;13.80;66.30;;;;;;5050954;28;20025;-71
2022/03/30 03:49:28;;;;;;;31.25;22.90;;;13.80;66.20;;;;;;5051790;28;20124;-71
2022/03/30 03:51:54;;;;;;;32.60;22.58;;;13.80;65.90;;;;;;5051056;28;20032;-71
2022/03/30 03:54:19;;;;;;;30.90;22.25;;;13.80;66.30;;;;;;5051419;28;20029;-71
2022/03/30 03:56:45;;;;;;;31.05;22.40;;;13.80;66.20;;;;;;5051576;28;20090;-71
2022/03/30 03:59:11;;;;;;;31.52;23.63;;;13.80;65.90;;;;;;5051001;28;20075;-71
2022/03/30 04:01:37;;;;;;;30.35;22.33;;;13.80;66.10;;;;;;5051582;28;20545;-71
2022/03/30 04:04:03;;;;;;;32.03;23.05;;;13.80;66.10;;;;;;5050599;28;20092;-71
2022/03/30 04:06:30;;;;;;;29.95;21.73;;;13.80;66.00;;;;;;5051274;28;20470;-71
2022/03/30 04:08:56;;;;;;;29.02;21.58;;;13.80;65.80;;;;;;5050704;28;20403;-72
2022/03/30 04:11:21;;;;;;;27.25;20.42;;;13.80;65.60;;;;;;5051621;28;20108;-73
2022/03/30 04:13:47;;;;;;;29.63;20.00;;;13.80;64.80;;;;;;5051466;28;20033;-73
2022/03/30 04:16:16;;;;;;;30.20;21.25;;;13.80;64.20;;;;;;5051309;28;20450;-71
2022/03/30 04:18:44;;;;;;;29.42;21.20;;;13.80;63.80;;;;;;5051419;28;20033;-71
2022/03/30 04:21:11;;;;;;;29.00;19.95;;;13.80;63.90;;;;;;5050865;28;20029;-71
2022/03/30 04:23:37;;;;;;;27.75;21.52;;;13.70;63.90;;;;;;5051328;28;20025;-71
2022/03/30 04:26:03;;;;;;;29.73;21.55;;;13.70;64.00;;;;;;5050737;28;20116;-71
2022/03/30 04:28:29;;;;;;;26.60;20.80;;;13.70;64.00;;;;;;5051069;28;20079;-71
2022/03/30 04:30:54;;;;;;;31.58;20.83;;;13.70;64.10;;;;;;5050267;28;20041;-71
2022/03/30 04:33:20;;;;;;;30.73;21.60;;;13.70;64.00;;;;;;5051079;28;20040;-71
2022/03/30 04:35:46;;;;;;;30.58;22.30;;;13.70;64.00;;;;;;5051053;28;20033;-71
2022/03/30 04:38:12;;;;;;;29.55;21.45;;;13.70;64.30;;;;;;5050583;28;20029;-70
2022/03/30 04:40:37;;;;;;;34.75;22.67;;;13.70;64.00;;;;;;5051287;28;20107;-71
2022/03/30 04:43:04;;;;;;;31.05;21.42;;;13.70;63.90;;;;;;5050483;28;20373;-71
2022/03/30 04:45:29;;;;;;;31.92;20.38;;;13.70;64.40;;;;;;5050844;28;20025;-71
2022/03/30 04:47:55;;;;;;;28.73;21.65;;;13.70;64.20;;;;;;5050682;28;20029;-71
2022/03/30 04:50:22;;;;;;;34.75;23.17;;;13.70;64.40;;;;;;5051297;28;20359;-71
2022/03/30 04:52:48;;;;;;;36.20;22.63;;;13.70;64.60;;;;;;5052423;28;20082;-71
2022/03/30 04:55:14;;;;;;;34.70;22.85;;;13.70;64.70;;;;;;5054100;28;20341;-71
2022/03/30 04:57:40;;;;;;;31.67;23.10;;;13.70;64.70;;;;;;5051853;28;20373;-75
2022/03/30 05:00:08;;;;;;;35.17;22.33;;;13.60;64.90;;;;;;5053682;28;20017;-71
2022/03/30 05:02:34;;;;;;;28.52;22.10;;;13.70;65.30;;;;;;5053279;28;20374;-72
2022/03/30 05:05:00;;;;;;;35.50;22.75;;;13.70;65.30;;;;;;5053583;28;20082;-71
2022/03/30 05:07:26;;;;;;;31.75;22.38;;;13.70;65.40;;;;;;5054393;28;20112;-71
2022/03/30 05:09:51;;;;;;;38.03;23.58;;;13.70;65.40;;;;;;5054270;28;20359;-71
2022/03/30 05:12:18;;;;;;;30.08;23.10;;;13.70;65.30;;;;;;5053618;28;20025;-71
2022/03/30 05:14:43;;;;;;;35.17;23.67;;;13.70;65.30;;;;;;5045598;28;20030;-70
2022/03/30 05:17:09;;;;;;;33.60;24.10;;;13.80;65.30;;;;;;5033572;28;20028;-71
2022/03/30 05:19:37;;;;;;;31.38;23.30;;;13.80;65.20;;;;;;5034267;28;20029;-71
2022/03/30 05:22:04;;;;;;;32.95;23.83;;;13.80;65.20;;;;;;5033698;28;20036;-71
2022/03/30 05:24:30;;;;;;;39.97;24.63;;;13.80;65.20;;;;;;5033869;28;20035;-72
2022/03/30 05:26:56;;;;;;;33.90;24.35;;;13.80;65.70;;;;;;5033530;28;20109;-76
2022/03/30 05:29:22;;;;;;;31.48;23.58;;;13.80;65.20;;;;;;5034283;28;20079;-70
2022/03/30 05:32:07;;;;;;;38.75;25.27;;;13.80;65.40;;;;;;5033863;28;20056;-70
2022/03/30 05:34:33;;;;;;;38.92;24.77;;;13.80;65.90;;;;;;5042964;28;20050;-69
2022/03/30 05:36:58;;;;;;;31.52;23.25;;;13.90;65.80;;;;;;5053214;28;20474;-71
2022/03/30 05:39:42;;;;;;;35.00;23.92;;;13.90;65.50;;;;;;5053463;28;20035;-71
2022/03/30 05:42:14;;;;;;;32.35;22.10;;;14.00;65.40;;;;;;5053158;28;20032;-71
2022/03/30 05:44:41;;;;;;;33.85;22.08;;;14.10;65.00;;;;;;5053375;28;20498;-70
2022/03/30 05:47:08;;;;;;;35.20;23.23;;;14.20;64.50;;;;;;5053046;28;20487;-71
2022/03/30 05:49:38;;;;;;;35.33;23.75;;;14.30;64.10;;;;;;5053696;28;20036;-71
2022/03/30 05:52:05;;;;;;;34.10;23.27;;;14.40;64.40;;;;;;5053376;28;20029;-71
2022/03/30 05:54:31;;;;;;;33.65;23.00;;;14.40;63.40;;;;;;5053299;28;20115;-71
2022/03/30 05:57:00;;;;;;;32.03;23.80;;;14.50;62.90;;;;;;5053360;28;20071;-71
2022/03/30 05:59:26;;;;;;;35.03;24.10;;;14.50;63.00;;;;;;5053580;28;20048;-71
2022/03/30 06:01:51;;;;;;;32.20;23.13;;;14.50;62.40;;;;;;5053391;28;20053;-71
2022/03/30 06:04:17;;;;;;;35.58;22.60;;;14.60;62.80;;;;;;5051778;28;20076;-71
2022/03/30 06:06:43;;;;;;;31.38;22.75;;;14.60;61.90;;;;;;5053428;28;20104;-71
2022/03/30 06:09:08;;;;;;;35.92;22.80;;;14.60;61.90;;;;;;5052718;28;20354;-71
2022/03/30 06:11:34;;;;;;;33.55;23.63;;;14.70;62.30;;;;;;5051933;28;20082;-71
2022/03/30 06:14:00;;;;;;;35.10;23.00;;;14.70;61.70;;;;;;5052614;28;20025;-72
2022/03/30 06:16:27;;;;;;;33.50;22.98;;;14.70;61.40;;;;;;5053092;28;20052;-71
2022/03/30 06:18:54;;;;;;;35.47;24.52;;;14.80;61.10;;;;;;5053117;28;20416;-70
2022/03/30 06:21:20;;;;;;;36.00;23.38;;;14.90;60.80;;;;;;5052563;28;20322;-71
2022/03/30 06:23:46;;;;;;;30.65;23.20;;;14.90;60.70;;;;;;5053078;28;20024;-71
2022/03/30 06:26:12;;;;;;;33.33;24.25;;;14.90;60.50;;;;;;5052366;28;20041;-71
2022/03/30 06:28:38;;;;;;;31.92;22.45;;;15.00;60.30;;;;;;5052491;28;20063;-70
2022/03/30 06:31:03;;;;;;;39.70;24.15;;;15.00;60.00;;;;;;5051918;28;20029;-70
2022/03/30 06:33:29;;;;;;;34.53;22.45;;;15.00;59.70;;;;;;5052864;28;20562;-71
2022/03/30 06:35:55;;;;;;;39.20;23.88;;;15.00;59.90;;;;;;5052659;28;20064;-70
2022/03/30 06:38:21;;;;;;;38.25;24.33;;;15.00;59.60;;;;;;5051877;28;20040;-70
2022/03/30 06:40:47;;;;;;;38.90;22.73;;;15.00;59.50;;;;;;5052656;28;20415;-70
2022/03/30 06:43:16;;;;;;;35.67;23.30;;;15.00;59.70;;;;;;5051983;28;20017;-71
2022/03/30 06:45:44;;;;;;;37.25;23.95;;;15.10;59.70;;;;;;5052225;28;20037;-71
2022/03/30 06:48:11;;;;;;;32.97;24.15;;;15.20;60.10;;;;;;5051714;28;20025;-70
2022/03/30 06:50:37;;;;;;;41.90;24.35;;;15.30;60.00;;;;;;5052034;28;20469;-70
2022/03/30 06:53:05;;;;;;;34.08;22.60;;;15.40;59.80;;;;;;5051749;28;20381;-74
2022/03/30 06:55:31;;;;;;;38.53;24.08;;;15.60;58.90;;;;;;5052605;28;20462;-72
2022/03/30 06:57:56;;;;;;;32.70;24.77;;;15.60;58.30;;;;;;5052467;28;20043;-71
2022/03/30 07:00:22;;;;;;;33.78;23.70;;;15.80;58.20;;;;;;5050362;28;20406;-71
2022/03/30 07:02:47;;;;;;;35.95;23.77;;;15.80;57.70;;;;;;5052469;28;20021;-70
2022/03/30 07:05:13;;;;;;;44.55;26.20;;;15.90;57.60;;;;;;5051401;28;20065;-70
2022/03/30 07:10:23;;;;;;;38.55;24.75;;;16.20;56.50;;;;;;5051508;28;20059;-70
2022/03/30 07:12:50;;;;;;;34.20;23.50;;;16.30;55.70;;;;;;5052025;28;20025;-70
2022/03/30 07:15:18;;;;;;;38.00;23.90;;;16.50;55.70;;;;;;5051372;28;20032;-71
2022/03/30 07:17:54;;;;;;;33.60;23.95;;;16.30;54.90;;;;;;5051899;28;20033;-71
2022/03/30 07:20:22;;;;;;;34.38;23.27;;;16.30;55.40;;;;;;5051465;28;20098;-71
2022/03/30 07:22:49;;;;;;;34.35;22.88;;;16.40;54.90;;;;;;5051624;28;20024;-71
2022/03/30 07:25:16;;;;;;;37.88;23.83;;;16.40;54.90;;;;;;5051521;28;20040;-70
2022/03/30 07:27:44;;;;;;;36.00;23.50;;;16.40;54.40;;;;;;5052133;28;20112;-70
2022/03/30 07:30:11;;;;;;;34.88;23.33;;;16.40;54.20;;;;;;5051214;28;20031;-71
2022/03/30 07:32:39;;;;;;;32.63;22.05;;;16.50;53.90;;;;;;5051824;28;20033;-70
2022/03/30 07:35:06;;;;;;;33.10;23.27;;;16.50;53.30;;;;;;5051724;28;20028;-77
2022/03/30 07:37:32;;;;;;;33.38;23.75;;;16.40;53.60;;;;;;5051706;28;20025;-71
2022/03/30 07:39:59;;;;;;;33.08;22.83;;;16.40;53.40;;;;;;5051816;28;20031;-71
2022/03/30 07:42:25;;;;;;;30.85;22.90;;;16.20;53.30;;;;;;5050466;28;20533;-71
2022/03/30 07:44:51;;;;;;;38.35;24.50;;;16.20;53.40;;;;;;5051444;28;20041;-70
2022/03/30 07:47:17;;;;;;;32.35;21.10;;;16.30;53.40;;;;;;5051059;28;20029;-70
2022/03/30 07:49:43;;;;;;;29.50;20.42;;;16.30;52.60;;;;;;5051817;28;20024;-71
2022/03/30 07:52:09;;;;;;;30.15;20.25;;;16.20;52.40;;;;;;5051056;28;20351;-71
2022/03/30 07:54:35;;;;;;;30.42;20.52;;;16.00;52.00;;;;;;5051536;28;20107;-71
2022/03/30 07:57:00;;;;;;;29.90;21.55;;;15.80;52.20;;;;;;5051518;28;20168;-70
2022/03/30 07:59:26;;;;;;;33.13;21.83;;;15.70;52.90;;;;;;5051148;28;20209;-70
2022/03/30 08:01:54;;;;;;;31.65;22.55;;;15.60;53.00;;;;;;5051613;28;20029;-71
2022/03/30 08:04:20;;;;;;;36.45;22.38;;;15.40;53.90;;;;;;5050850;28;20040;-70
2022/03/30 08:06:46;;;;;;;34.30;22.55;;;15.40;54.40;;;;;;5051567;28;20134;-70
2022/03/30 08:09:11;;;;;;;32.83;21.45;;;15.30;54.20;;;;;;5051008;28;20048;-71
2022/03/30 08:11:38;;;;;;;33.05;22.73;;;15.20;54.00;;;;;;5051357;28;20386;-70
2022/03/30 08:14:03;;;;;;;32.08;21.80;;;15.20;54.10;;;;;;5051497;28;20112;-70
2022/03/30 08:16:32;;;;;;;32.60;21.90;;;15.10;53.90;;;;;;5050857;28;20117;-71
2022/03/30 08:18:58;;;;;;;32.10;22.10;;;15.00;54.20;;;;;;5051429;28;20021;-71
2022/03/30 08:24:08;;;;;;;36.40;23.15;;;15.10;54.60;;;;;;5050894;28;20362;-76
2022/03/30 08:26:34;;;;;;;29.55;21.58;;;15.00;54.30;;;;;;5051321;28;20021;-71
2022/03/30 08:28:59;;;;;;;30.80;21.30;;;15.00;54.30;;;;;;5054554;28;20378;-70
2022/03/30 08:31:25;;;;;;;35.25;22.13;;;14.90;54.70;;;;;;5054558;28;20034;-70
2022/03/30 08:33:51;;;;;;;30.55;21.25;;;14.90;55.20;;;;;;5055006;28;20036;-71
2022/03/30 08:36:16;;;;;;;39.70;21.40;;;14.90;55.10;;;;;;5054442;28;20535;-70
2022/03/30 08:38:42;;;;;;;32.28;21.42;;;14.90;55.30;;;;;;5054947;28;20036;-71
2022/03/30 08:41:09;;;;;;;29.80;22.52;;;14.90;56.10;;;;;;5055028;28;20381;-70
2022/03/30 08:43:34;;;;;;;32.80;23.00;;;15.00;55.80;;;;;;5055037;28;20025;-70
2022/03/30 08:46:02;;;;;;;29.92;21.17;;;15.00;55.90;;;;;;5054886;28;20464;-71
2022/03/30 08:48:28;;;;;;;35.38;21.75;;;15.20;55.80;;;;;;5054263;28;20044;-70
2022/03/30 08:50:55;;;;;;;30.33;21.40;;;15.20;55.00;;;;;;5054966;28;20519;-71
2022/03/30 08:53:24;;;;;;;28.85;21.48;;;15.20;55.00;;;;;;5054258;28;20102;-71
2022/03/30 08:55:49;;;;;;;28.33;20.75;;;15.20;55.20;;;;;;5054397;28;20405;-71
2022/03/30 08:58:34;;;;;;;28.63;21.90;;;15.40;55.30;;;;;;5053852;28;20063;-71
2022/03/30 09:01:11;;;;;;;33.17;22.05;;;15.40;54.80;;;;;;5054476;28;20021;-71
2022/03/30 09:03:55;;;;;;;32.38;21.15;;;15.40;54.60;;;;;;5054759;28;20036;-71
2022/03/30 09:06:39;;;;;;;31.70;21.52;;;15.40;54.30;;;;;;5054027;28;20125;-71
2022/03/30 09:09:06;;;;;;;33.13;20.48;;;15.50;54.10;;;;;;5054978;28;20017;-70
2022/03/30 09:11:40;;;;;;;30.42;21.42;;;15.60;54.00;;;;;;5053653;28;20837;-70
2022/03/30 09:14:09;;;;;;;32.35;21.70;;;15.70;53.40;;;;;;5054357;28;20039;-70
2022/03/30 09:16:42;;;;;;;34.13;21.65;;;15.80;52.30;;;;;;5053699;28;20040;-70
2022/03/30 09:19:10;;;;;;;31.55;20.10;;;15.90;52.20;;;;;;5053231;28;20434;-71
2022/03/30 09:21:57;;;;;;;36.28;21.48;;;16.00;51.60;;;;;;5053657;28;20028;-71
2022/03/30 09:24:28;;;;;;;30.95;20.77;;;16.10;52.00;;;;;;5052362;28;20528;-71
2022/03/30 09:26:56;;;;;;;31.75;20.70;;;16.10;52.10;;;;;;5054199;28;20021;-71
2022/03/30 09:29:27;;;;;;;31.25;19.52;;;16.20;51.80;;;;;;5053454;28;20029;-71
2022/03/30 09:31:53;;;;;;;29.75;21.63;;;16.30;51.70;;;;;;5054399;28;20029;-71
2022/03/30 09:34:20;;;;;;;38.53;21.27;;;16.40;51.80;;;;;;5053452;28;20033;-71
2022/03/30 09:36:49;;;;;;;26.77;19.60;;;16.60;51.70;;;;;;5053823;28;20381;-71
2022/03/30 09:39:36;;;;;;;30.35;20.23;;;16.80;51.30;;;;;;5053076;28;20029;-71
2022/03/30 09:42:05;;;;;;;32.60;19.85;;;17.00;49.60;;;;;;5053655;28;20079;-70
2022/03/30 09:44:47;;;;;;;33.53;20.00;;;17.10;49.60;;;;;;5052232;28;20037;-71
2022/03/30 09:47:14;;;;;;;30.60;19.95;;;17.20;48.30;;;;;;5053760;28;20029;-70
2022/03/30 09:49:45;;;;;;;32.03;20.52;;;17.20;48.00;;;;;;5053653;28;20401;-70
2022/03/30 09:52:18;;;;;;;30.67;19.52;;;17.20;48.00;;;;;;5053606;28;20079;-70
2022/03/30 09:54:49;;;;;;;30.48;19.05;;;17.10;48.00;;;;;;5053213;28;20418;-71
2022/03/30 09:57:19;;;;;;;27.00;18.63;;;17.00;48.50;;;;;;5053196;28;20040;-77
2022/03/30 10:00:12;;;;;;;30.85;19.63;;;16.90;47.80;;;;;;5053549;28;20378;-71
2022/03/30 10:02:50;;;;;;;30.00;19.42;;;16.80;47.80;;;;;;5052840;28;20482;-71
2022/03/30 10:05:18;;;;;;;33.47;20.02;;;16.90;48.50;;;;;;5052727;28;20041;-76
2022/03/30 10:07:47;;;;;;;32.78;19.60;;;16.90;48.70;;;;;;5053046;28;20143;-70
2022/03/30 10:10:15;;;;;;;29.88;18.70;;;16.90;48.90;;;;;;5053247;28;20028;-71
2022/03/30 10:12:42;;;;;;;28.25;19.50;;;17.00;48.90;;;;;;5053294;28;20021;-71
2022/03/30 10:15:09;;;;;;;27.00;19.27;;;17.00;48.10;;;;;;5052906;28;20045;-70
2022/03/30 10:17:36;;;;;;;26.20;18.63;;;16.90;48.30;;;;;;5052521;28;20347;-70
2022/03/30 10:20:03;;;;;;;25.58;19.42;;;16.90;48.40;;;;;;5053066;28;20039;-70
2022/03/30 10:22:41;;;;;;;28.23;18.63;;;16.90;48.40;;;;;;5052541;28;20025;-71
2022/03/30 10:25:17;;;;;;;32.33;19.88;;;16.90;48.20;;;;;;5052936;28;20120;-71
2022/03/30 10:27:55;;;;;;;29.73;18.30;;;16.90;48.30;;;;;;5052668;28;20025;-71
2022/03/30 10:30:29;;;;;;;27.55;18.27;;;16.90;47.70;;;;;;5051753;28;20029;-71
2022/03/30 10:32:58;;;;;;;26.67;18.48;;;16.90;47.90;;;;;;5051404;28;20382;-70
2022/03/30 10:36:19;;;;;;;24.33;17.65;;;16.90;48.00;;;;;;5052003;28;20517;-71
2022/03/30 10:39:14;;;;;;;26.83;18.20;;;16.90;47.80;;;;;;5030378;28;20029;-70
2022/03/30 10:42:03;;;;;;;26.10;18.40;;;16.90;48.10;;;;;;5036604;28;20033;-71
2022/03/30 10:44:43;;;;;;;28.75;18.38;;;16.90;47.80;;;;;;5051891;28;20122;-70
2022/03/30 10:47:18;;;;;;;27.02;18.92;;;16.90;47.40;;;;;;5052577;28;20025;-71
2022/03/30 10:49:54;;;;;;;29.48;18.23;;;17.00;47.30;;;;;;5052394;28;20048;-70
2022/03/30 10:52:42;;;;;;;23.88;17.95;;;17.00;47.80;;;;;;5051776;28;20033;-71
2022/03/30 10:55:13;;;;;;;22.50;17.23;;;17.10;47.90;;;;;;5051901;28;20452;-70
2022/03/30 10:57:53;;;;;;;24.70;18.00;;;17.20;48.50;;;;;;5051635;28;20099;-71
2022/03/30 11:00:34;;;;;;;28.67;18.73;;;17.20;47.40;;;;;;5052017;28;20033;-76
2022/03/30 11:03:08;;;;;;;27.50;18.00;;;17.30;47.90;;;;;;5052257;28;20099;-70
2022/03/30 11:05:35;;;;;;;23.05;17.38;;;17.30;47.20;;;;;;5051475;28;20052;-71
2022/03/30 11:08:24;;;;;;;32.80;18.10;;;17.40;48.00;;;;;;5052131;28;20171;-71
2022/03/30 11:10:49;;;;;;;31.33;19.48;;;17.40;47.50;;;;;;5051988;28;20061;-71
2022/03/30 11:13:25;;;;;;;27.58;17.95;;;17.50;47.30;;;;;;5052094;28;20521;-70
2022/03/30 11:15:59;;;;;;;31.50;18.95;;;17.50;47.90;;;;;;5052046;28;20033;-70
2022/03/30 11:18:25;;;;;;;29.88;18.23;;;17.50;47.70;;;;;;5051388;28;20025;-70
2022/03/30 11:21:14;;;;;;;29.08;18.23;;;17.50;47.60;;;;;;5051982;28;20021;-71
2022/03/30 11:24:01;;;;;;;30.70;18.85;;;17.50;47.60;;;;;;5051352;28;20439;-71
2022/03/30 11:26:48;;;;;;;29.90;18.98;;;17.40;48.10;;;;;;5051415;28;20461;-70
2022/03/30 11:29:44;;;;;;;30.08;18.88;;;17.40;48.40;;;;;;5051733;28;20021;-70
2022/03/30 11:32:19;;;;;;;26.08;18.50;;;17.50;48.90;;;;;;5051682;28;20029;-71
2022/03/30 11:34:48;;;;;;;29.73;18.85;;;17.60;49.00;;;;;;5051016;28;20060;-70
2022/03/30 11:37:13;;;;;;;25.30;18.42;;;17.60;48.70;;;;;;5051663;28;20056;-71
2022/03/30 11:39:41;;;;;;;27.63;20.17;;;17.60;48.40;;;;;;5051139;28;20029;-71
2022/03/30 11:42:07;;;;;;;31.17;19.10;;;17.70;48.40;;;;;;5051398;28;20029;-70
2022/03/30 11:47:24;;;;;;;30.17;18.52;;;17.70;48.40;;;;;;5051402;28;20079;-71
2022/03/30 11:49:56;;;;;;;30.85;18.27;;;17.70;48.60;;;;;;5051508;28;20068;-70
2022/03/30 11:52:23;;;;;;;29.75;18.80;;;17.70;48.70;;;;;;5051488;28;20029;-71
2022/03/30 11:54:53;;;;;;;26.45;18.50;;;17.70;48.80;;;;;;5050725;28;20037;-70
2022/03/30 11:57:20;;;;;;;27.00;17.52;;;17.70;48.70;;;;;;5051123;28;20474;-71
2022/03/30 11:59:55;;;;;;;27.35;17.75;;;17.60;48.50;;;;;;5051231;28;20033;-70
2022/03/30 12:02:25;;;;;;;24.85;17.90;;;17.60;48.70;;;;;;5051758;28;20059;-72
2022/03/30 12:04:52;;;;;;;29.38;17.92;;;17.60;49.20;;;;;;5055523;28;20470;-70
2022/03/30 12:07:21;;;;;;;28.60;17.17;;;17.70;49.30;;;;;;5055515;28;20021;-71
2022/03/30 12:09:53;;;;;;;22.92;15.93;;;17.70;49.00;;;;;;5054994;28;20029;-70
2022/03/30 12:12:45;;;;;;;24.42;16.17;;;17.70;48.60;;;;;;5055488;28;20025;-72
2022/03/30 12:15:16;;;;;;;25.88;17.30;;;17.70;48.20;;;;;;5053362;28;20048;-71
2022/03/30 12:17:42;;;;;;;21.65;14.95;;;17.70;48.30;;;;;;5054770;28;20024;-71
2022/03/30 12:20:09;;;;;;;28.85;16.48;;;17.70;48.20;;;;;;5055609;28;20029;-70
2022/03/30 12:22:37;;;;;;;20.20;14.77;;;17.60;48.10;;;;;;5054549;28;20037;-70
2022/03/30 12:25:16;;;;;;;24.20;14.48;;;17.50;47.70;;;;;;5055167;28;20037;-70
2022/03/30 12:27:41;;;;;;;23.92;13.45;;;17.40;47.80;;;;;;5054573;28;20025;-71
2022/03/30 12:30:08;;;;;;;19.23;13.77;;;17.30;47.60;;;;;;5055212;28;20458;-70
2022/03/30 12:32:33;;;;;;;20.52;12.38;;;17.30;47.60;;;;;;5054436;28;20049;-70
2022/03/30 12:35:15;;;;;;;20.00;12.50;;;17.20;47.10;;;;;;5055012;28;20029;-70
2022/03/30 12:37:45;;;;;;;20.67;12.70;;;17.20;46.50;;;;;;5054190;28;20486;-70
2022/03/30 12:40:15;;;;;;;22.50;12.45;;;17.20;46.80;;;;;;5055341;28;20040;-71
2022/03/30 12:42:41;;;;;;;16.67;12.05;;;17.20;47.10;;;;;;5054256;28;20025;-71
2022/03/30 12:45:14;;;;;;;19.60;12.38;;;17.10;47.30;;;;;;5054619;28;20096;-70
2022/03/30 12:47:45;;;;;;;21.27;12.63;;;17.10;47.50;;;;;;5054281;28;20353;-70
2022/03/30 12:50:14;;;;;;;23.75;12.57;;;17.10;47.70;;;;;;5054886;28;20072;-70